sensor_id;sensor_type;location;lat;lon;timestamp;temperature;humidity
57218;DHT22;43078;52.972;6.482;2022-11-13T00:00:54;7.20;99.90
57218;DHT22;43078;52.972;6.482;2022-11-13T00:03:20;7.20;99.90
57218;DHT22;43078;52.972;6.482;2022-11-13T00:05:46;7.20;99.90
57218;DHT22;43078;52.972;6.482;2022-11-13T00:08:11;7.10;99.90
57218;DHT22;43078;52.972;6.482;2022-11-13T00:10:37;7.20;99.90
57218;DHT22;43078;52.972;6.482;2022-11-13T00:13:03;7.10;99.90
57218;DHT22;43078;52.972;6.482;2022-11-13T00:15:28;7.10;99.90
57218;DHT22;43078;52.972;6.482;2022-11-13T00:17:54;7.10;99.90
57218;DHT22;43078;52.972;6.482;2022-11-13T00:20:19;7.10;99.90
57218;DHT22;43078;52.972;6.482;2022-11-13T00:22:45;7.10;99.90
57218;DHT22;43078;52.972;6.482;2022-11-13T00:25:10;7.10;99.90
57218;DHT22;43078;52.972;6.482;2022-11-13T00:27:36;7.10;99.90
57218;DHT22;43078;52.972;6.482;2022-11-13T00:30:03;7.10;99.90
57218;DHT22;43078;52.972;6.482;2022-11-13T00:32:28;7.00;99.90
57218;DHT22;43078;52.972;6.482;2022-11-13T00:34:54;7.10;99.90
57218;DHT22;43078;52.972;6.482;2022-11-13T00:37:20;7.10;99.90
57218;DHT22;43078;52.972;6.482;2022-11-13T00:39:45;7.00;99.90
57218;DHT22;43078;52.972;6.482;2022-11-13T00:42:11;7.10;99.90
57218;DHT22;43078;52.972;6.482;2022-11-13T00:44:36;7.10;99.90
57218;DHT22;43078;52.972;6.482;2022-11-13T00:47:02;7.10;99.90
57218;DHT22;43078;52.972;6.482;2022-11-13T00:49:28;7.10;99.90
57218;DHT22;43078;52.972;6.482;2022-11-13T00:51:53;7.10;99.90
57218;DHT22;43078;52.972;6.482;2022-11-13T00:54:19;7.00;99.90
57218;DHT22;43078;52.972;6.482;2022-11-13T00:56:44;7.10;99.90
57218;DHT22;43078;52.972;6.482;2022-11-13T00:59:10;7.10;99.90
57218;DHT22;43078;52.972;6.482;2022-11-13T01:01:35;7.00;99.90
57218;DHT22;43078;52.972;6.482;2022-11-13T01:04:01;7.00;99.90
57218;DHT22;43078;52.972;6.482;2022-11-13T01:06:27;7.10;99.90
57218;DHT22;43078;52.972;6.482;2022-11-13T01:08:54;7.00;99.90
57218;DHT22;43078;52.972;6.482;2022-11-13T01:11:22;7.00;99.90
57218;DHT22;43078;52.972;6.482;2022-11-13T01:13:49;7.00;99.90
57218;DHT22;43078;52.972;6.482;2022-11-13T01:16:16;7.00;99.90
57218;DHT22;43078;52.972;6.482;2022-11-13T01:18:43;7.00;99.90
57218;DHT22;43078;52.972;6.482;2022-11-13T01:21:11;7.00;99.90
57218;DHT22;43078;52.972;6.482;2022-11-13T01:23:37;7.00;99.90
57218;DHT22;43078;52.972;6.482;2022-11-13T01:28:40;7.00;99.90
57218;DHT22;43078;52.972;6.482;2022-11-13T01:31:07;7.10;99.90
57218;DHT22;43078;52.972;6.482;2022-11-13T01:33:34;7.00;99.90
57218;DHT22;43078;52.972;6.482;2022-11-13T01:36:05;7.00;99.90
57218;DHT22;43078;52.972;6.482;2022-11-13T01:38:31;7.10;99.90
57218;DHT22;43078;52.972;6.482;2022-11-13T01:40:57;7.00;99.90
57218;DHT22;43078;52.972;6.482;2022-11-13T01:43:32;7.10;99.90
57218;DHT22;43078;52.972;6.482;2022-11-13T01:48:45;7.10;99.90
57218;DHT22;43078;52.972;6.482;2022-11-13T01:51:15;7.10;99.90
57218;DHT22;43078;52.972;6.482;2022-11-13T01:53:43;7.00;99.90
57218;DHT22;43078;52.972;6.482;2022-11-13T01:56:10;7.10;99.90
57218;DHT22;43078;52.972;6.482;2022-11-13T01:58:36;7.10;99.90
57218;DHT22;43078;52.972;6.482;2022-11-13T02:01:03;7.10;99.90
57218;DHT22;43078;52.972;6.482;2022-11-13T02:03:28;7.10;99.90
57218;DHT22;43078;52.972;6.482;2022-11-13T02:05:54;7.10;99.90
57218;DHT22;43078;52.972;6.482;2022-11-13T02:08:20;7.00;99.90
57218;DHT22;43078;52.972;6.482;2022-11-13T02:10:46;7.10;99.90
57218;DHT22;43078;52.972;6.482;2022-11-13T02:13:12;7.10;99.90
57218;DHT22;43078;52.972;6.482;2022-11-13T02:15:39;7.10;99.90
57218;DHT22;43078;52.972;6.482;2022-11-13T02:18:06;7.10;99.90
57218;DHT22;43078;52.972;6.482;2022-11-13T02:21:04;7.10;99.90
57218;DHT22;43078;52.972;6.482;2022-11-13T02:23:40;7.10;99.90
57218;DHT22;43078;52.972;6.482;2022-11-13T02:26:08;7.10;99.90
57218;DHT22;43078;52.972;6.482;2022-11-13T02:28:35;7.10;99.90
57218;DHT22;43078;52.972;6.482;2022-11-13T02:31:08;7.10;99.90
57218;DHT22;43078;52.972;6.482;2022-11-13T02:33:34;7.10;99.90
57218;DHT22;43078;52.972;6.482;2022-11-13T02:36:00;7.10;99.90
57218;DHT22;43078;52.972;6.482;2022-11-13T02:38:26;7.10;99.90
57218;DHT22;43078;52.972;6.482;2022-11-13T02:40:52;7.10;99.90
57218;DHT22;43078;52.972;6.482;2022-11-13T02:43:18;7.10;99.90
57218;DHT22;43078;52.972;6.482;2022-11-13T02:45:43;7.10;99.90
57218;DHT22;43078;52.972;6.482;2022-11-13T02:48:09;7.20;99.90
57218;DHT22;43078;52.972;6.482;2022-11-13T02:50:35;7.10;99.90
57218;DHT22;43078;52.972;6.482;2022-11-13T02:53:02;7.10;99.90
57218;DHT22;43078;52.972;6.482;2022-11-13T02:55:28;7.20;99.90
57218;DHT22;43078;52.972;6.482;2022-11-13T02:57:54;7.20;99.90
57218;DHT22;43078;52.972;6.482;2022-11-13T03:00:19;7.10;99.90
57218;DHT22;43078;52.972;6.482;2022-11-13T03:02:45;7.10;99.90
57218;DHT22;43078;52.972;6.482;2022-11-13T03:05:10;7.20;99.90
57218;DHT22;43078;52.972;6.482;2022-11-13T03:07:36;7.20;99.90
57218;DHT22;43078;52.972;6.482;2022-11-13T03:10:02;7.20;99.90
57218;DHT22;43078;52.972;6.482;2022-11-13T03:12:28;7.20;99.90
57218;DHT22;43078;52.972;6.482;2022-11-13T03:14:53;7.20;99.90
57218;DHT22;43078;52.972;6.482;2022-11-13T03:17:19;7.10;99.90
57218;DHT22;43078;52.972;6.482;2022-11-13T03:19:44;7.10;99.90
57218;DHT22;43078;52.972;6.482;2022-11-13T03:22:10;7.10;99.90
57218;DHT22;43078;52.972;6.482;2022-11-13T03:24:36;7.10;99.90
57218;DHT22;43078;52.972;6.482;2022-11-13T03:27:01;7.10;99.90
57218;DHT22;43078;52.972;6.482;2022-11-13T03:29:27;7.10;99.90
57218;DHT22;43078;52.972;6.482;2022-11-13T03:31:52;7.10;99.90
57218;DHT22;43078;52.972;6.482;2022-11-13T03:34:18;7.10;99.90
57218;DHT22;43078;52.972;6.482;2022-11-13T03:36:43;7.10;99.90
57218;DHT22;43078;52.972;6.482;2022-11-13T03:39:09;7.10;99.90
57218;DHT22;43078;52.972;6.482;2022-11-13T03:41:35;7.10;99.90
57218;DHT22;43078;52.972;6.482;2022-11-13T03:44:00;7.10;99.90
57218;DHT22;43078;52.972;6.482;2022-11-13T03:46:26;7.10;99.90
57218;DHT22;43078;52.972;6.482;2022-11-13T03:48:51;7.10;99.90
57218;DHT22;43078;52.972;6.482;2022-11-13T03:51:17;7.10;99.90
57218;DHT22;43078;52.972;6.482;2022-11-13T03:53:43;7.10;99.90
57218;DHT22;43078;52.972;6.482;2022-11-13T03:56:08;7.10;99.90
57218;DHT22;43078;52.972;6.482;2022-11-13T03:58:34;7.10;99.90
57218;DHT22;43078;52.972;6.482;2022-11-13T04:00:59;7.10;99.90
57218;DHT22;43078;52.972;6.482;2022-11-13T04:03:25;7.10;99.90
57218;DHT22;43078;52.972;6.482;2022-11-13T04:05:51;7.10;99.90
57218;DHT22;43078;52.972;6.482;2022-11-13T04:08:17;7.10;99.90
57218;DHT22;43078;52.972;6.482;2022-11-13T04:10:43;7.10;99.90
57218;DHT22;43078;52.972;6.482;2022-11-13T04:13:09;7.10;99.90
57218;DHT22;43078;52.972;6.482;2022-11-13T04:15:35;7.10;99.90
57218;DHT22;43078;52.972;6.482;2022-11-13T04:18:01;7.00;99.90
57218;DHT22;43078;52.972;6.482;2022-11-13T04:20:27;7.10;99.90
57218;DHT22;43078;52.972;6.482;2022-11-13T04:22:53;7.10;99.90
57218;DHT22;43078;52.972;6.482;2022-11-13T04:25:20;7.00;99.90
57218;DHT22;43078;52.972;6.482;2022-11-13T04:27:45;7.00;99.90
57218;DHT22;43078;52.972;6.482;2022-11-13T04:30:13;7.00;99.90
57218;DHT22;43078;52.972;6.482;2022-11-13T04:32:38;7.00;99.90
57218;DHT22;43078;52.972;6.482;2022-11-13T04:35:04;7.00;99.90
57218;DHT22;43078;52.972;6.482;2022-11-13T04:37:30;7.00;99.90
57218;DHT22;43078;52.972;6.482;2022-11-13T04:39:55;7.00;99.90
57218;DHT22;43078;52.972;6.482;2022-11-13T04:42:21;7.00;99.90
57218;DHT22;43078;52.972;6.482;2022-11-13T04:45:05;7.00;99.90
57218;DHT22;43078;52.972;6.482;2022-11-13T04:47:31;7.00;99.90
57218;DHT22;43078;52.972;6.482;2022-11-13T04:49:57;7.00;99.90
57218;DHT22;43078;52.972;6.482;2022-11-13T04:52:22;7.00;99.90
57218;DHT22;43078;52.972;6.482;2022-11-13T04:54:48;6.90;99.90
57218;DHT22;43078;52.972;6.482;2022-11-13T04:57:13;6.90;99.90
57218;DHT22;43078;52.972;6.482;2022-11-13T04:59:39;7.00;99.90
57218;DHT22;43078;52.972;6.482;2022-11-13T05:02:05;6.90;99.90
57218;DHT22;43078;52.972;6.482;2022-11-13T05:04:30;7.00;99.90
57218;DHT22;43078;52.972;6.482;2022-11-13T05:06:56;7.00;99.90
57218;DHT22;43078;52.972;6.482;2022-11-13T05:09:21;7.00;99.90
57218;DHT22;43078;52.972;6.482;2022-11-13T05:11:47;6.90;99.90
57218;DHT22;43078;52.972;6.482;2022-11-13T05:14:13;6.90;99.90
57218;DHT22;43078;52.972;6.482;2022-11-13T05:16:38;6.90;99.90
57218;DHT22;43078;52.972;6.482;2022-11-13T05:19:04;6.90;99.90
57218;DHT22;43078;52.972;6.482;2022-11-13T05:21:34;6.90;99.90
57218;DHT22;43078;52.972;6.482;2022-11-13T05:24:01;6.90;99.90
57218;DHT22;43078;52.972;6.482;2022-11-13T05:26:26;6.90;99.90
57218;DHT22;43078;52.972;6.482;2022-11-13T05:28:55;6.90;99.90
57218;DHT22;43078;52.972;6.482;2022-11-13T05:31:20;6.90;99.90
57218;DHT22;43078;52.972;6.482;2022-11-13T05:33:46;6.90;99.90
57218;DHT22;43078;52.972;6.482;2022-11-13T05:36:14;6.90;99.90
57218;DHT22;43078;52.972;6.482;2022-11-13T05:38:40;6.90;99.90
57218;DHT22;43078;52.972;6.482;2022-11-13T05:41:07;6.90;99.90
57218;DHT22;43078;52.972;6.482;2022-11-13T05:43:34;6.90;99.90
57218;DHT22;43078;52.972;6.482;2022-11-13T05:46:04;6.90;99.90
57218;DHT22;43078;52.972;6.482;2022-11-13T05:48:30;6.90;99.90
57218;DHT22;43078;52.972;6.482;2022-11-13T05:53:31;6.80;99.90
57218;DHT22;43078;52.972;6.482;2022-11-13T05:56:03;6.80;99.90
57218;DHT22;43078;52.972;6.482;2022-11-13T05:58:29;6.80;99.90
57218;DHT22;43078;52.972;6.482;2022-11-13T06:01:13;6.80;99.90
57218;DHT22;43078;52.972;6.482;2022-11-13T06:03:40;6.80;99.90
57218;DHT22;43078;52.972;6.482;2022-11-13T06:06:07;6.80;99.90
57218;DHT22;43078;52.972;6.482;2022-11-13T06:08:33;6.80;99.90
57218;DHT22;43078;52.972;6.482;2022-11-13T06:11:00;6.80;99.90
57218;DHT22;43078;52.972;6.482;2022-11-13T06:13:26;6.80;99.90
57218;DHT22;43078;52.972;6.482;2022-11-13T06:15:52;6.70;99.90
57218;DHT22;43078;52.972;6.482;2022-11-13T06:18:22;6.70;99.90
57218;DHT22;43078;52.972;6.482;2022-11-13T06:20:48;6.70;99.90
57218;DHT22;43078;52.972;6.482;2022-11-13T06:23:13;6.70;99.90
57218;DHT22;43078;52.972;6.482;2022-11-13T06:25:39;6.70;99.90
57218;DHT22;43078;52.972;6.482;2022-11-13T06:28:05;6.70;99.90
57218;DHT22;43078;52.972;6.482;2022-11-13T06:30:30;6.70;99.90
57218;DHT22;43078;52.972;6.482;2022-11-13T06:32:56;6.60;99.90
57218;DHT22;43078;52.972;6.482;2022-11-13T06:35:21;6.60;99.90
57218;DHT22;43078;52.972;6.482;2022-11-13T06:37:47;6.60;99.90
57218;DHT22;43078;52.972;6.482;2022-11-13T06:40:13;6.60;99.90
57218;DHT22;43078;52.972;6.482;2022-11-13T06:42:38;6.60;99.90
57218;DHT22;43078;52.972;6.482;2022-11-13T06:45:04;6.60;99.90
57218;DHT22;43078;52.972;6.482;2022-11-13T06:47:30;6.60;99.90
57218;DHT22;43078;52.972;6.482;2022-11-13T06:49:55;6.50;99.90
57218;DHT22;43078;52.972;6.482;2022-11-13T06:52:21;6.50;99.90
57218;DHT22;43078;52.972;6.482;2022-11-13T06:54:47;6.50;99.90
57218;DHT22;43078;52.972;6.482;2022-11-13T06:57:12;6.50;99.90
57218;DHT22;43078;52.972;6.482;2022-11-13T06:59:38;6.50;99.90
57218;DHT22;43078;52.972;6.482;2022-11-13T07:02:04;6.50;99.90
57218;DHT22;43078;52.972;6.482;2022-11-13T07:04:30;6.50;99.90
57218;DHT22;43078;52.972;6.482;2022-11-13T07:06:55;6.50;99.90
57218;DHT22;43078;52.972;6.482;2022-11-13T07:09:21;6.40;99.90
57218;DHT22;43078;52.972;6.482;2022-11-13T07:11:46;6.40;99.90
57218;DHT22;43078;52.972;6.482;2022-11-13T07:14:12;6.40;99.90
57218;DHT22;43078;52.972;6.482;2022-11-13T07:16:38;6.40;99.90
57218;DHT22;43078;52.972;6.482;2022-11-13T07:19:03;6.40;99.90
57218;DHT22;43078;52.972;6.482;2022-11-13T07:21:29;6.40;99.90
57218;DHT22;43078;52.972;6.482;2022-11-13T07:23:55;6.40;99.90
57218;DHT22;43078;52.972;6.482;2022-11-13T07:26:21;6.40;99.90
57218;DHT22;43078;52.972;6.482;2022-11-13T07:28:47;6.40;99.90
57218;DHT22;43078;52.972;6.482;2022-11-13T07:31:15;6.30;99.90
57218;DHT22;43078;52.972;6.482;2022-11-13T07:33:41;6.30;99.90
57218;DHT22;43078;52.972;6.482;2022-11-13T07:36:07;6.30;99.90
57218;DHT22;43078;52.972;6.482;2022-11-13T07:38:33;6.30;99.90
57218;DHT22;43078;52.972;6.482;2022-11-13T07:41:00;6.30;99.90
57218;DHT22;43078;52.972;6.482;2022-11-13T07:43:25;6.30;99.90
57218;DHT22;43078;52.972;6.482;2022-11-13T07:45:51;6.30;99.90
57218;DHT22;43078;52.972;6.482;2022-11-13T07:48:20;6.30;99.90
57218;DHT22;43078;52.972;6.482;2022-11-13T07:50:46;6.30;99.90
57218;DHT22;43078;52.972;6.482;2022-11-13T07:53:12;6.20;99.90
57218;DHT22;43078;52.972;6.482;2022-11-13T07:55:37;6.30;99.90
57218;DHT22;43078;52.972;6.482;2022-11-13T07:58:03;6.30;99.90
57218;DHT22;43078;52.972;6.482;2022-11-13T08:00:31;6.20;99.90
57218;DHT22;43078;52.972;6.482;2022-11-13T08:02:57;6.30;99.90
57218;DHT22;43078;52.972;6.482;2022-11-13T08:05:23;6.20;99.90
57218;DHT22;43078;52.972;6.482;2022-11-13T08:07:50;6.30;99.90
57218;DHT22;43078;52.972;6.482;2022-11-13T08:10:17;6.30;99.90
57218;DHT22;43078;52.972;6.482;2022-11-13T08:12:44;6.30;99.90
57218;DHT22;43078;52.972;6.482;2022-11-13T08:15:10;6.30;99.90
57218;DHT22;43078;52.972;6.482;2022-11-13T08:17:36;6.30;99.90
57218;DHT22;43078;52.972;6.482;2022-11-13T08:20:03;6.30;99.90
57218;DHT22;43078;52.972;6.482;2022-11-13T08:22:30;6.30;99.90
57218;DHT22;43078;52.972;6.482;2022-11-13T08:24:55;6.30;99.90
57218;DHT22;43078;52.972;6.482;2022-11-13T08:27:23;6.40;99.90
57218;DHT22;43078;52.972;6.482;2022-11-13T08:29:49;6.40;99.90
57218;DHT22;43078;52.972;6.482;2022-11-13T08:32:16;6.40;99.90
57218;DHT22;43078;52.972;6.482;2022-11-13T08:34:42;6.40;99.90
57218;DHT22;43078;52.972;6.482;2022-11-13T08:37:08;6.40;99.90
57218;DHT22;43078;52.972;6.482;2022-11-13T08:39:33;6.50;99.90
57218;DHT22;43078;52.972;6.482;2022-11-13T08:42:01;6.50;99.90
57218;DHT22;43078;52.972;6.482;2022-11-13T08:44:26;6.50;99.90
57218;DHT22;43078;52.972;6.482;2022-11-13T08:46:52;6.60;99.90
57218;DHT22;43078;52.972;6.482;2022-11-13T08:49:17;6.60;99.90
57218;DHT22;43078;52.972;6.482;2022-11-13T08:51:43;6.60;99.90
57218;DHT22;43078;52.972;6.482;2022-11-13T08:54:08;6.70;99.90
57218;DHT22;43078;52.972;6.482;2022-11-13T08:56:34;6.70;99.90
57218;DHT22;43078;52.972;6.482;2022-11-13T08:59:00;6.80;99.90
57218;DHT22;43078;52.972;6.482;2022-11-13T09:01:25;6.80;99.90
57218;DHT22;43078;52.972;6.482;2022-11-13T09:03:51;6.80;99.90
57218;DHT22;43078;52.972;6.482;2022-11-13T09:06:16;6.90;99.90
57218;DHT22;43078;52.972;6.482;2022-11-13T09:08:42;6.90;99.90
57218;DHT22;43078;52.972;6.482;2022-11-13T09:11:08;7.00;99.90
57218;DHT22;43078;52.972;6.482;2022-11-13T09:13:34;7.00;99.90
57218;DHT22;43078;52.972;6.482;2022-11-13T09:16:01;7.10;99.90
57218;DHT22;43078;52.972;6.482;2022-11-13T09:18:27;7.20;99.90
57218;DHT22;43078;52.972;6.482;2022-11-13T09:20:53;7.20;99.90
57218;DHT22;43078;52.972;6.482;2022-11-13T09:23:19;7.30;99.90
57218;DHT22;43078;52.972;6.482;2022-11-13T09:25:46;7.40;99.90
57218;DHT22;43078;52.972;6.482;2022-11-13T09:28:11;7.40;99.90
57218;DHT22;43078;52.972;6.482;2022-11-13T09:30:38;7.50;99.90
57218;DHT22;43078;52.972;6.482;2022-11-13T09:33:05;7.50;99.90
57218;DHT22;43078;52.972;6.482;2022-11-13T09:35:32;7.50;99.90
57218;DHT22;43078;52.972;6.482;2022-11-13T09:38:08;7.60;99.90
57218;DHT22;43078;52.972;6.482;2022-11-13T09:43:18;7.70;99.90
57218;DHT22;43078;52.972;6.482;2022-11-13T09:45:45;7.80;99.90
57218;DHT22;43078;52.972;6.482;2022-11-13T09:48:31;7.90;99.90
57218;DHT22;43078;52.972;6.482;2022-11-13T09:51:00;7.90;99.90
57218;DHT22;43078;52.972;6.482;2022-11-13T09:53:33;7.90;99.90
57218;DHT22;43078;52.972;6.482;2022-11-13T09:58:46;8.10;99.90
57218;DHT22;43078;52.972;6.482;2022-11-13T10:02:03;8.10;99.90
57218;DHT22;43078;52.972;6.482;2022-11-13T10:04:07;8.20;99.90
57218;DHT22;43078;52.972;6.482;2022-11-13T10:06:39;8.20;99.90
57218;DHT22;43078;52.972;6.482;2022-11-13T10:12:06;8.40;99.90
57218;DHT22;43078;52.972;6.482;2022-11-13T10:14:40;8.40;99.90
57218;DHT22;43078;52.972;6.482;2022-11-13T10:17:38;8.50;99.90
57218;DHT22;43078;52.972;6.482;2022-11-13T10:20:11;8.50;99.90
57218;DHT22;43078;52.972;6.482;2022-11-13T10:22:46;8.60;99.90
57218;DHT22;43078;52.972;6.482;2022-11-13T10:25:17;8.70;99.90
57218;DHT22;43078;52.972;6.482;2022-11-13T10:27:52;8.70;99.90
57218;DHT22;43078;52.972;6.482;2022-11-13T10:30:20;8.80;99.90
57218;DHT22;43078;52.972;6.482;2022-11-13T10:32:45;8.80;99.90
57218;DHT22;43078;52.972;6.482;2022-11-13T10:35:18;8.90;99.90
57218;DHT22;43078;52.972;6.482;2022-11-13T10:38:00;8.90;99.90
57218;DHT22;43078;52.972;6.482;2022-11-13T10:40:32;9.00;99.90
57218;DHT22;43078;52.972;6.482;2022-11-13T10:43:16;9.00;99.90
57218;DHT22;43078;52.972;6.482;2022-11-13T10:46:01;9.10;99.90
57218;DHT22;43078;52.972;6.482;2022-11-13T10:48:30;9.10;99.90
57218;DHT22;43078;52.972;6.482;2022-11-13T10:50:59;9.20;99.90
57218;DHT22;43078;52.972;6.482;2022-11-13T10:53:26;9.30;99.90
57218;DHT22;43078;52.972;6.482;2022-11-13T10:55:56;9.30;99.90
57218;DHT22;43078;52.972;6.482;2022-11-13T10:58:23;9.40;99.90
57218;DHT22;43078;52.972;6.482;2022-11-13T11:00:49;9.50;99.90
57218;DHT22;43078;52.972;6.482;2022-11-13T11:03:22;9.50;99.90
57218;DHT22;43078;52.972;6.482;2022-11-13T11:05:53;9.70;99.90
57218;DHT22;43078;52.972;6.482;2022-11-13T11:08:22;9.70;99.90
57218;DHT22;43078;52.972;6.482;2022-11-13T11:11:16;9.80;99.90
57218;DHT22;43078;52.972;6.482;2022-11-13T11:14:25;9.90;99.80
57218;DHT22;43078;52.972;6.482;2022-11-13T11:16:52;9.90;99.70
57218;DHT22;43078;52.972;6.482;2022-11-13T11:19:21;10.00;99.90
57218;DHT22;43078;52.972;6.482;2022-11-13T11:21:52;10.20;99.90
57218;DHT22;43078;52.972;6.482;2022-11-13T11:24:30;10.20;99.80
57218;DHT22;43078;52.972;6.482;2022-11-13T11:27:03;10.20;99.60
57218;DHT22;43078;52.972;6.482;2022-11-13T11:29:39;10.30;99.60
57218;DHT22;43078;52.972;6.482;2022-11-13T11:34:53;10.50;99.40
57218;DHT22;43078;52.972;6.482;2022-11-13T11:37:22;10.60;99.10
57218;DHT22;43078;52.972;6.482;2022-11-13T11:39:58;10.60;99.20
57218;DHT22;43078;52.972;6.482;2022-11-13T11:42:40;10.70;99.00
57218;DHT22;43078;52.972;6.482;2022-11-13T11:45:28;10.80;98.90
57218;DHT22;43078;52.972;6.482;2022-11-13T11:47:56;10.80;98.70
57218;DHT22;43078;52.972;6.482;2022-11-13T11:50:34;10.90;98.50
57218;DHT22;43078;52.972;6.482;2022-11-13T11:53:30;11.00;98.40
57218;DHT22;43078;52.972;6.482;2022-11-13T12:13:34;11.30;98.30
57218;DHT22;43078;52.972;6.482;2022-11-13T12:26:30;11.60;98.00
57218;DHT22;43078;52.972;6.482;2022-11-13T12:35:17;11.80;97.80
57218;DHT22;43078;52.972;6.482;2022-11-13T12:45:49;12.00;98.00
57218;DHT22;43078;52.972;6.482;2022-11-13T12:50:56;12.00;97.90
57218;DHT22;43078;52.972;6.482;2022-11-13T12:53:28;12.10;97.00
57218;DHT22;43078;52.972;6.482;2022-11-13T12:55:58;12.20;96.70
57218;DHT22;43078;52.972;6.482;2022-11-13T12:58:31;12.20;97.00
57218;DHT22;43078;52.972;6.482;2022-11-13T13:08:54;12.40;96.50
57218;DHT22;43078;52.972;6.482;2022-11-13T13:11:42;12.50;96.60
57218;DHT22;43078;52.972;6.482;2022-11-13T13:17:21;12.50;96.20
57218;DHT22;43078;52.972;6.482;2022-11-13T13:22:35;12.60;96.00
57218;DHT22;43078;52.972;6.482;2022-11-13T13:25:19;12.60;96.20
57218;DHT22;43078;52.972;6.482;2022-11-13T13:27:58;12.70;96.40
57218;DHT22;43078;52.972;6.482;2022-11-13T13:30:24;12.70;95.90
57218;DHT22;43078;52.972;6.482;2022-11-13T13:33:15;12.80;96.00
57218;DHT22;43078;52.972;6.482;2022-11-13T13:35:46;12.80;95.80
57218;DHT22;43078;52.972;6.482;2022-11-13T13:41:03;12.90;96.50
57218;DHT22;43078;52.972;6.482;2022-11-13T13:44:15;12.90;96.20
57218;DHT22;43078;52.972;6.482;2022-11-13T13:46:33;12.90;96.50
57218;DHT22;43078;52.972;6.482;2022-11-13T13:49:04;12.90;96.50
57218;DHT22;43078;52.972;6.482;2022-11-13T13:51:41;12.90;96.30
57218;DHT22;43078;52.972;6.482;2022-11-13T13:54:07;12.90;96.20
57218;DHT22;43078;52.972;6.482;2022-11-13T13:56:39;12.90;96.40
57218;DHT22;43078;52.972;6.482;2022-11-13T13:59:11;13.00;96.50
57218;DHT22;43078;52.972;6.482;2022-11-13T14:01:38;13.00;96.10
57218;DHT22;43078;52.972;6.482;2022-11-13T14:04:09;13.00;95.80
57218;DHT22;43078;52.972;6.482;2022-11-13T14:06:50;13.00;95.90
57218;DHT22;43078;52.972;6.482;2022-11-13T14:09:20;13.00;96.10
57218;DHT22;43078;52.972;6.482;2022-11-13T14:11:46;13.00;96.20
57218;DHT22;43078;52.972;6.482;2022-11-13T14:14:20;13.00;96.30
57218;DHT22;43078;52.972;6.482;2022-11-13T14:16:50;13.00;96.60
57218;DHT22;43078;52.972;6.482;2022-11-13T14:19:17;13.00;96.70
57218;DHT22;43078;52.972;6.482;2022-11-13T14:21:45;13.00;96.30
57218;DHT22;43078;52.972;6.482;2022-11-13T14:24:23;13.00;96.40
57218;DHT22;43078;52.972;6.482;2022-11-13T14:26:51;13.00;96.30
57218;DHT22;43078;52.972;6.482;2022-11-13T14:31:50;13.00;96.50
57218;DHT22;43078;52.972;6.482;2022-11-13T14:34:18;13.00;96.60
57218;DHT22;43078;52.972;6.482;2022-11-13T14:36:44;12.90;96.60
57218;DHT22;43078;52.972;6.482;2022-11-13T14:39:33;13.00;96.60
57218;DHT22;43078;52.972;6.482;2022-11-13T14:41:59;12.90;96.30
57218;DHT22;43078;52.972;6.482;2022-11-13T14:44:30;12.90;96.70
57218;DHT22;43078;52.972;6.482;2022-11-13T14:47:05;12.90;96.90
57218;DHT22;43078;52.972;6.482;2022-11-13T14:49:44;12.90;96.90
57218;DHT22;43078;52.972;6.482;2022-11-13T14:52:20;12.90;96.80
57218;DHT22;43078;52.972;6.482;2022-11-13T14:54:45;12.90;96.70
57218;DHT22;43078;52.972;6.482;2022-11-13T14:57:13;12.90;96.90
57218;DHT22;43078;52.972;6.482;2022-11-13T14:59:40;12.90;97.20
57218;DHT22;43078;52.972;6.482;2022-11-13T15:02:10;12.80;96.90
57218;DHT22;43078;52.972;6.482;2022-11-13T15:04:36;12.80;97.20
57218;DHT22;43078;52.972;6.482;2022-11-13T15:07:17;12.80;97.30
57218;DHT22;43078;52.972;6.482;2022-11-13T15:09:43;12.80;97.40
57218;DHT22;43078;52.972;6.482;2022-11-13T15:12:12;12.80;97.50
57218;DHT22;43078;52.972;6.482;2022-11-13T15:14:38;12.80;97.50
57218;DHT22;43078;52.972;6.482;2022-11-13T15:17:13;12.80;97.30
57218;DHT22;43078;52.972;6.482;2022-11-13T15:19:39;12.70;97.60
57218;DHT22;43078;52.972;6.482;2022-11-13T15:22:10;12.70;97.80
57218;DHT22;43078;52.972;6.482;2022-11-13T15:24:36;12.60;97.60
57218;DHT22;43078;52.972;6.482;2022-11-13T15:27:02;12.60;97.80
57218;DHT22;43078;52.972;6.482;2022-11-13T15:29:27;12.60;97.90
57218;DHT22;43078;52.972;6.482;2022-11-13T15:31:53;12.60;98.00
57218;DHT22;43078;52.972;6.482;2022-11-13T15:34:19;12.60;98.00
57218;DHT22;43078;52.972;6.482;2022-11-13T15:36:44;12.50;98.00
57218;DHT22;43078;52.972;6.482;2022-11-13T15:39:11;12.50;98.10
57218;DHT22;43078;52.972;6.482;2022-11-13T15:41:37;12.50;98.20
57218;DHT22;43078;52.972;6.482;2022-11-13T15:44:11;12.50;98.20
57218;DHT22;43078;52.972;6.482;2022-11-13T15:46:37;12.40;98.20
57218;DHT22;43078;52.972;6.482;2022-11-13T15:49:03;12.40;98.20
57218;DHT22;43078;52.972;6.482;2022-11-13T15:51:44;12.40;98.30
57218;DHT22;43078;52.972;6.482;2022-11-13T15:54:26;12.40;98.30
57218;DHT22;43078;52.972;6.482;2022-11-13T15:56:52;12.30;98.50
57218;DHT22;43078;52.972;6.482;2022-11-13T15:59:18;12.20;98.60
57218;DHT22;43078;52.972;6.482;2022-11-13T16:01:43;12.20;98.50
57218;DHT22;43078;52.972;6.482;2022-11-13T16:04:09;12.30;98.90
57218;DHT22;43078;52.972;6.482;2022-11-13T16:06:38;12.20;98.70
57218;DHT22;43078;52.972;6.482;2022-11-13T16:09:04;12.20;98.70
57218;DHT22;43078;52.972;6.482;2022-11-13T16:11:31;12.10;98.60
57218;DHT22;43078;52.972;6.482;2022-11-13T16:13:57;12.10;99.00
57218;DHT22;43078;52.972;6.482;2022-11-13T16:16:29;12.00;98.70
57218;DHT22;43078;52.972;6.482;2022-11-13T16:18:55;12.10;98.90
57218;DHT22;43078;52.972;6.482;2022-11-13T16:21:21;12.00;98.90
57218;DHT22;43078;52.972;6.482;2022-11-13T16:23:47;12.00;98.90
57218;DHT22;43078;52.972;6.482;2022-11-13T16:26:22;11.90;98.90
57218;DHT22;43078;52.972;6.482;2022-11-13T16:28:50;11.90;98.80
57218;DHT22;43078;52.972;6.482;2022-11-13T16:31:21;11.90;98.90
57218;DHT22;43078;52.972;6.482;2022-11-13T16:33:47;11.80;99.00
57218;DHT22;43078;52.972;6.482;2022-11-13T16:36:18;11.80;99.00
57218;DHT22;43078;52.972;6.482;2022-11-13T16:38:45;11.80;99.10
57218;DHT22;43078;52.972;6.482;2022-11-13T16:41:13;11.80;99.10
57218;DHT22;43078;52.972;6.482;2022-11-13T16:43:39;11.70;99.10
57218;DHT22;43078;52.972;6.482;2022-11-13T16:48:50;11.60;99.00
57218;DHT22;43078;52.972;6.482;2022-11-13T16:51:16;11.60;99.20
57218;DHT22;43078;52.972;6.482;2022-11-13T16:53:42;11.60;99.20
57218;DHT22;43078;52.972;6.482;2022-11-13T16:56:23;11.60;99.30
57218;DHT22;43078;52.972;6.482;2022-11-13T16:58:57;11.50;99.20
57218;DHT22;43078;52.972;6.482;2022-11-13T17:01:24;11.50;99.30
57218;DHT22;43078;52.972;6.482;2022-11-13T17:03:50;11.50;99.30
57218;DHT22;43078;52.972;6.482;2022-11-13T17:08:48;11.40;99.30
57218;DHT22;43078;52.972;6.482;2022-11-13T17:11:14;11.40;99.40
57218;DHT22;43078;52.972;6.482;2022-11-13T17:13:40;11.40;99.40
57218;DHT22;43078;52.972;6.482;2022-11-13T17:16:06;11.30;99.40
57218;DHT22;43078;52.972;6.482;2022-11-13T17:18:31;11.30;99.40